X  Chiuso Dati meteorologici dell'aviazione (METAR)     LIBA Amendola Air Base
Temperatura
11°C Temperatura
5°C Punto di rugiada
67% Umidità



Vento
21 KM/O
13 MPH
6 M/S
11 KTS



320°
NO
Condizioni attuali

Nuvole per lo più sparse Nuvole per lo più sparse
Pressione 1010.92 (hPa) - 29.85 (inHg)
Visibilità 6.2 (miglio) - 10 (km)
Aeroporto
Codice-Aeroporto LIBA

Posizione: Amendola Air Base
Distanza: 60 (km)

Metar:
LIBA 301655Z 32011KT 9999 SCT060 11/05 Q1011 RMK BKN SCT120 VIS MIN 9999 WIND THR11 32011KT WIND THR29 /////KT BLU

Ore: 30-11-2022 17:55 CET